SEH221 LIPH-EDDS
Flight info
| Callsign | SEH221 |
|---|---|
| Flight time | N/A |
| Altitude | 18000 |
| Route | VIC L613 ARGAX Y170 ROMIR T125 REUTL REUTL5A |
| Aircraft | A21N/M-SDE2E3FGHIRWXY/LB1 |
Departure
| Time | 2026-05-05 16:24 |
|---|---|
| Airport | Treviso Airport (LIPH) |
Arrival
| Time | N/A |
|---|---|
| Airport | Stuttgart Airport (EDDS) |
| Time | Latitude | Longitude | Altitude | Speed | Heading |
|---|---|---|---|---|---|
| 2026-05-05 15:59 | 45.65366 | 12.20383 | 49 ft | 0 kts | 339° |
| 2026-05-05 16:14 | 45.65352 | 12.20391 | 48 ft | 0 kts | 339° |
| 2026-05-05 16:14 | 45.65330 | 12.20413 | 48 ft | 2 kts | 306° |
| 2026-05-05 16:15 | 45.65321 | 12.20454 | 48 ft | 2 kts | 267° |
| 2026-05-05 16:15 | 45.65325 | 12.20481 | 48 ft | 0 kts | 248° |
| 2026-05-05 16:18 | 45.65317 | 12.20451 | 48 ft | 6 kts | 248° |
| 2026-05-05 16:19 | 45.65289 | 12.20363 | 47 ft | 12 kts | 239° |
| 2026-05-05 16:19 | 45.65207 | 12.20275 | 48 ft | 17 kts | 210° |
| 2026-05-05 16:19 | 45.65005 | 12.20002 | 48 ft | 23 kts | 248° |
| 2026-05-05 16:20 | 45.64884 | 12.19533 | 48 ft | 27 kts | 251° |
| 2026-05-05 16:20 | 45.64743 | 12.19011 | 51 ft | 28 kts | 249° |
| 2026-05-05 16:21 | 45.64613 | 12.18498 | 53 ft | 25 kts | 248° |
| 2026-05-05 16:22 | 45.64473 | 12.17947 | 51 ft | 10 kts | 306° |
| 2026-05-05 16:22 | 45.64493 | 12.17960 | 51 ft | 1 kts | 102° |
| 2026-05-05 16:23 | 45.64502 | 12.18094 | 51 ft | 11 kts | 70° |
| 2026-05-05 16:23 | 45.64535 | 12.18223 | 51 ft | 16 kts | 69° |
| 2026-05-05 16:23 | 45.64980 | 12.19900 | 78 ft | 156 kts | 68° |
| 2026-05-05 16:24 | 45.65371 | 12.21397 | 613 ft | 169 kts | 69° |
| 2026-05-05 16:24 | 45.65703 | 12.23040 | 1303 ft | 176 kts | 78° |
| 2026-05-05 16:24 | 45.66043 | 12.26522 | 2644 ft | 184 kts | 81° |
| 2026-05-05 16:25 | 45.66208 | 12.28392 | 3201 ft | 194 kts | 81° |
| 2026-05-05 16:25 | 45.67268 | 12.32005 | 4127 ft | 221 kts | 29° |
| 2026-05-05 16:25 | 45.68784 | 12.32476 | 4612 ft | 235 kts | 349° |
| 2026-05-05 16:26 | 45.71042 | 12.29357 | 6140 ft | 244 kts | 280° |
| 2026-05-05 16:26 | 45.70919 | 12.24525 | 7713 ft | 250 kts | 262° |
| 2026-05-05 16:27 | 45.70663 | 12.22089 | 8455 ft | 252 kts | 262° |
| 2026-05-05 16:27 | 45.70401 | 12.19624 | 9225 ft | 253 kts | 262° |
| 2026-05-05 16:27 | 45.70119 | 12.17122 | 9955 ft | 256 kts | 261° |
| 2026-05-05 16:27 | 45.69826 | 12.14651 | 10644 ft | 258 kts | 260° |
| 2026-05-05 16:28 | 45.69514 | 12.12113 | 11327 ft | 261 kts | 260° |
| 2026-05-05 16:28 | 45.69196 | 12.09568 | 11990 ft | 263 kts | 259° |
| 2026-05-05 16:28 | 45.68869 | 12.07003 | 12653 ft | 265 kts | 259° |
| 2026-05-05 16:28 | 45.68538 | 12.04413 | 13340 ft | 266 kts | 259° |
| 2026-05-05 16:29 | 45.68203 | 12.01818 | 14023 ft | 267 kts | 260° |
| 2026-05-05 16:29 | 45.67866 | 11.99216 | 14692 ft | 268 kts | 260° |
| 2026-05-05 16:29 | 45.67527 | 11.96602 | 15346 ft | 268 kts | 260° |
| 2026-05-05 16:29 | 45.67188 | 11.93992 | 15984 ft | 269 kts | 260° |
| 2026-05-05 16:30 | 45.66845 | 11.91355 | 16613 ft | 270 kts | 260° |
| 2026-05-05 16:30 | 45.66501 | 11.88714 | 17227 ft | 271 kts | 261° |
| 2026-05-05 16:30 | 45.66156 | 11.86072 | 17826 ft | 272 kts | 261° |
| 2026-05-05 16:30 | 45.65812 | 11.83445 | 18408 ft | 273 kts | 261° |
| 2026-05-05 16:31 | 45.65464 | 11.80786 | 18979 ft | 274 kts | 261° |
| 2026-05-05 16:31 | 45.65111 | 11.78102 | 19540 ft | 276 kts | 262° |
| 2026-05-05 16:31 | 45.64758 | 11.75419 | 20085 ft | 277 kts | 262° |
| 2026-05-05 16:31 | 45.64403 | 11.72720 | 20615 ft | 278 kts | 262° |
| 2026-05-05 16:32 | 45.64096 | 11.69981 | 21113 ft | 279 kts | 271° |
| 2026-05-05 16:32 | 45.64469 | 11.67329 | 21534 ft | 280 kts | 297° |
| 2026-05-05 16:32 | 45.65696 | 11.65105 | 21808 ft | 292 kts | 315° |
| 2026-05-05 16:32 | 45.67221 | 11.63186 | 22031 ft | 303 kts | 316° |
| 2026-05-05 16:33 | 45.68845 | 11.61149 | 22246 ft | 315 kts | 316° |
| 2026-05-05 16:33 | 45.70510 | 11.59049 | 22455 ft | 326 kts | 316° |
| 2026-05-05 16:33 | 45.72232 | 11.56872 | 22660 ft | 337 kts | 316° |
| 2026-05-05 16:33 | 45.74013 | 11.54613 | 22859 ft | 347 kts | 316° |
| 2026-05-05 16:34 | 45.75843 | 11.52289 | 23052 ft | 358 kts | 316° |
| 2026-05-05 16:34 | 45.77710 | 11.49915 | 23239 ft | 367 kts | 316° |
| 2026-05-05 16:34 | 45.79639 | 11.47458 | 23417 ft | 377 kts | 316° |
| 2026-05-05 16:34 | 45.81612 | 11.44943 | 23590 ft | 386 kts | 316° |
| 2026-05-05 16:35 | 45.83653 | 11.42338 | 23754 ft | 395 kts | 316° |
| 2026-05-05 16:35 | 45.85696 | 11.39727 | 23911 ft | 403 kts | 316° |
| 2026-05-05 16:35 | 45.87826 | 11.37003 | 24107 ft | 410 kts | 316° |
| 2026-05-05 16:35 | 45.89946 | 11.34288 | 24444 ft | 412 kts | 316° |
| 2026-05-05 16:36 | 45.92067 | 11.31569 | 24845 ft | 413 kts | 316° |
| 2026-05-05 16:36 | 45.94204 | 11.28825 | 25226 ft | 414 kts | 316° |
| 2026-05-05 16:36 | 45.96349 | 11.26067 | 25594 ft | 415 kts | 316° |
| 2026-05-05 16:36 | 45.98480 | 11.23324 | 26034 ft | 414 kts | 316° |
| 2026-05-05 16:37 | 46.00605 | 11.20585 | 26557 ft | 411 kts | 316° |
| 2026-05-05 16:37 | 46.02734 | 11.17839 | 27074 ft | 407 kts | 316° |
| 2026-05-05 16:37 | 46.04809 | 11.15168 | 27542 ft | 405 kts | 316° |
| 2026-05-05 16:37 | 46.06895 | 11.12506 | 27994 ft | 402 kts | 317° |
| 2026-05-05 16:38 | 46.08989 | 11.09837 | 28441 ft | 400 kts | 317° |
| 2026-05-05 16:38 | 46.11044 | 11.07212 | 28875 ft | 397 kts | 317° |
| 2026-05-05 16:38 | 46.13092 | 11.04580 | 29310 ft | 395 kts | 317° |
| 2026-05-05 16:38 | 46.15134 | 11.01932 | 29733 ft | 393 kts | 316° |
| 2026-05-05 16:39 | 46.17147 | 10.99315 | 30106 ft | 392 kts | 316° |
| 2026-05-05 16:39 | 46.19169 | 10.96684 | 30450 ft | 391 kts | 316° |
| 2026-05-05 16:39 | 46.21180 | 10.94064 | 30782 ft | 390 kts | 316° |
| 2026-05-05 16:39 | 46.23175 | 10.91462 | 31092 ft | 390 kts | 316° |
| 2026-05-05 16:40 | 46.25178 | 10.88847 | 31392 ft | 390 kts | 316° |
| 2026-05-05 16:40 | 46.27177 | 10.86233 | 31691 ft | 389 kts | 316° |
| 2026-05-05 16:40 | 46.29201 | 10.83586 | 31969 ft | 389 kts | 316° |